createdAt,value
2023-05-05T04:42:39.291Z,20.30
2023-05-05T04:45:07.434Z,9.90
2023-05-05T04:47:39.125Z,8.20
2023-05-05T04:50:07.388Z,15.30
2023-05-05T04:52:34.625Z,12.30
2023-05-05T04:55:01.639Z,14.80
2023-05-05T04:57:29.746Z,18.10
2023-05-05T04:59:56.955Z,15.20
2023-05-05T05:02:24.155Z,10.20
2023-05-05T05:04:51.212Z,9.20
2023-05-05T05:07:18.164Z,22.60
2023-05-05T05:09:45.072Z,6.20
2023-05-05T05:12:12.137Z,12.80
2023-05-05T05:14:39.736Z,15.50
2023-05-05T05:17:06.908Z,9.30
2023-05-05T05:19:35.414Z,14.80
2023-05-05T05:22:02.592Z,9.70
2023-05-05T05:24:30.811Z,17.40
2023-05-05T05:26:58.749Z,16.80
2023-05-05T05:29:27.458Z,12.30
2023-05-05T05:31:57.091Z,9.50
2023-05-05T05:34:39.784Z,14.00
2023-05-05T05:37:17.658Z,10.30
2023-05-05T05:39:55.126Z,11.10
2023-05-05T05:42:22.828Z,10.10
2023-05-05T05:44:49.931Z,11.00
2023-05-05T05:47:17.914Z,12.00
2023-05-05T05:49:46.019Z,15.70
2023-05-05T05:52:13.188Z,14.30
2023-05-05T05:54:40.521Z,11.20
2023-05-05T05:57:08.064Z,11.70
2023-05-05T05:59:36.672Z,13.50
2023-05-05T06:02:04.632Z,10.40
2023-05-05T06:04:32.629Z,12.50
2023-05-05T06:07:01.213Z,9.30
2023-05-05T06:09:28.589Z,10.30
2023-05-05T06:11:55.794Z,11.20
2023-05-05T06:14:23.087Z,12.80
2023-05-05T06:16:53.306Z,12.70
2023-05-05T06:19:22.823Z,13.40
2023-05-05T06:21:50.924Z,12.60
2023-05-05T06:24:28.666Z,7.40
2023-05-05T06:27:04.456Z,8.80
2023-05-05T06:29:50.700Z,11.60
2023-05-05T06:32:23.605Z,10.70
2023-05-05T06:35:28.562Z,9.20
2023-05-05T06:38:26.921Z,11.00
2023-05-05T06:41:33.714Z,10.40
2023-05-05T06:44:01.107Z,14.60
2023-05-05T06:46:28.010Z,8.60
2023-05-05T06:48:56.336Z,8.80
2023-05-05T06:51:34.834Z,16.10
2023-05-05T06:54:02.880Z,14.50
2023-05-05T06:56:30.973Z,10.30
2023-05-05T06:58:57.925Z,8.90
2023-05-05T07:01:25.092Z,12.60
2023-05-05T07:03:52.449Z,10.40
2023-05-05T07:06:19.767Z,10.20
2023-05-05T07:08:49.721Z,8.40
2023-05-05T07:11:16.863Z,7.10
2023-05-05T07:13:46.527Z,9.70
2023-05-05T07:16:13.537Z,7.00
2023-05-05T07:18:40.630Z,6.90
2023-05-05T07:21:08.259Z,8.50
2023-05-05T07:23:37.977Z,9.80
2023-05-05T07:26:05.138Z,5.70
2023-05-05T07:28:32.109Z,7.00
2023-05-05T07:30:59.377Z,7.30
2023-05-05T07:33:26.400Z,5.90
2023-05-05T07:35:53.540Z,6.80
2023-05-05T07:38:20.647Z,4.90
2023-05-05T07:40:49.413Z,8.10
2023-05-05T07:43:17.517Z,7.10
2023-05-05T07:45:44.424Z,4.40
2023-05-05T07:48:11.808Z,6.30
2023-05-05T07:50:41.058Z,7.50
2023-05-05T07:53:14.478Z,5.50
2023-05-05T07:55:42.445Z,6.60
2023-05-05T07:58:11.274Z,11.00
2023-05-05T08:00:39.882Z,4.60
2023-05-05T08:03:13.111Z,7.50
2023-05-05T08:05:48.229Z,3.30
2023-05-05T08:08:16.517Z,7.10
2023-05-05T08:10:43.488Z,7.10
2023-05-05T08:13:16.512Z,6.00
2023-05-05T08:15:45.202Z,7.40
2023-05-05T08:18:12.227Z,10.40
2023-05-05T08:20:39.159Z,4.60
2023-05-05T08:23:06.394Z,3.20
2023-05-05T08:25:34.599Z,7.80
2023-05-05T08:28:01.551Z,5.30
2023-05-05T08:30:28.640Z,4.60
2023-05-05T08:32:55.642Z,5.60
2023-05-05T08:35:22.761Z,5.50
2023-05-05T08:37:50.758Z,5.90
2023-05-05T08:40:17.682Z,8.40
2023-05-05T08:42:55.559Z,9.40
2023-05-05T08:45:25.156Z,8.50
2023-05-05T08:47:52.419Z,5.20
2023-05-05T08:50:19.783Z,6.00
2023-05-05T08:52:48.093Z,2.30
2023-05-05T08:55:26.674Z,8.60
2023-05-05T08:57:57.823Z,4.80
2023-05-05T09:00:30.114Z,2.00
2023-05-05T09:02:58.400Z,3.20
2023-05-05T09:05:26.501Z,3.80
2023-05-05T09:07:56.165Z,4.10
2023-05-05T09:10:23.245Z,5.10
2023-05-05T09:12:52.153Z,4.20
2023-05-05T09:15:22.940Z,3.20
2023-05-05T09:17:57.066Z,3.80
2023-05-05T09:20:34.574Z,3.80
2023-05-05T09:23:20.543Z,2.20
2023-05-05T09:26:06.509Z,5.50
2023-05-05T09:28:33.619Z,3.20
2023-05-05T09:31:14.048Z,3.10
2023-05-05T09:33:41.294Z,6.90
2023-05-05T09:36:08.310Z,2.00
2023-05-05T09:38:37.060Z,8.90
2023-05-05T09:41:05.539Z,2.60
2023-05-05T09:43:59.343Z,5.90
2023-05-05T09:46:54.394Z,2.40
2023-05-05T09:49:26.995Z,1.50
2023-05-05T09:51:55.767Z,3.50
2023-05-05T09:54:41.513Z,2.10
2023-05-05T09:57:08.820Z,4.50
2023-05-05T09:59:42.296Z,4.60
2023-05-05T10:02:19.279Z,2.30
2023-05-05T10:04:47.957Z,2.60
2023-05-05T10:07:31.946Z,5.40
2023-05-05T10:10:05.345Z,3.20
2023-05-05T10:12:32.782Z,5.80
2023-05-05T10:15:01.281Z,5.00
2023-05-05T10:17:31.088Z,8.10
2023-05-05T10:19:59.886Z,2.10
2023-05-05T10:22:27.647Z,3.60
2023-05-05T10:24:58.052Z,2.20
2023-05-05T10:27:25.018Z,4.80
2023-05-05T10:30:04.991Z,2.30
2023-05-05T10:33:05.589Z,2.70
2023-05-05T10:35:36.866Z,2.80
2023-05-05T10:38:03.886Z,7.30
2023-05-05T10:40:30.859Z,4.10
2023-05-05T10:42:57.786Z,4.10
2023-05-05T10:45:26.826Z,2.50
2023-05-05T10:47:54.090Z,2.30
2023-05-05T10:50:24.059Z,5.70
2023-05-05T10:53:09.709Z,5.90
2023-05-05T10:55:51.958Z,8.40
2023-05-05T10:58:46.869Z,2.00
2023-05-05T11:01:14.706Z,4.90
2023-05-05T11:03:41.684Z,2.10
2023-05-05T11:06:09.102Z,3.20
2023-05-05T11:08:45.296Z,6.80
2023-05-05T11:11:12.837Z,3.20
2023-05-05T11:13:40.163Z,5.70
2023-05-05T11:16:43.008Z,4.60
2023-05-05T11:22:00.180Z,2.40
2023-05-05T11:24:29.056Z,3.70
2023-05-05T11:26:56.092Z,4.70
2023-05-05T11:29:22.975Z,5.50
2023-05-05T11:32:15.776Z,2.60
2023-05-05T11:37:18.846Z,2.00
2023-05-05T11:40:04.629Z,8.80
2023-05-05T11:42:31.666Z,3.80
2023-05-05T11:44:58.612Z,2.50
2023-05-05T11:47:26.711Z,3.40
2023-05-05T11:49:53.695Z,2.60
2023-05-05T11:52:20.661Z,3.60
2023-05-05T11:54:49.019Z,3.10
2023-05-05T11:57:17.740Z,4.40
